Huvudsida
METAR-TAF:

METAR-TAF

Flygplatser :

Kuusamo flygplats

Kuusamo, Finland

latitud: 65-58N, longitud: 029-11E, höjd: 262 m

Aktuellt väderrapport

Denna rapport gjordes för 24 minuter sedan, klockan 12:20 UTC
Vind 9 kt från väst
Temperatur 3°C
Fuktighet 81%
Tryck 992 hPa
Sikt 10 km eller mer
Inga moln under 1 500 m eller inga cumulonimbus

METAR: EFKS 221220Z AUTO 26009KT CAVOK 03/00 Q0992

Tid: 15:44 (12:44 UTC)

Väderprognos

Denna rapport gjordes för 4 timmar och 16 minuter sedan, klockan 08:28 UTC
Prognos gäller från 22 kl. 09 UTC till 22 kl. 13 UTC
Vind 6 kt från väst
Sikt 10 km eller mer
Inga moln under 1 500 m eller inga cumulonimbus
Temporärt
från 22 kl. 09 UTC till 22 kl. 10 UTC
Brutna moln på en höjd av 1000 ft

TAF: EFKS 220828Z 2209/2213 28006KT CAVOK TEMPO 2209/2210 BKN010

Aktuella väderrapporter och prognoser från 4000 flygplatser (METAR- och TAF-rapporter).

De tillgängliga stationerna syns som gula och röda prickar på kartan.

För musen över prickarna för att se namnen på stationerna.

Klicka sedan för att få väderrapporter och prognoser.

För att ändra kartan: Klicka på de gröna knapparna med ett svart kors på för att zooma in; den gröna knappen med ett streck på för att zooma ut; eller på de gröna pilarna för angränsande kartor.


METAR-TAF: